createdAt,value
2024-03-16T00:02:24.081Z,37.46
2024-03-16T00:05:26.736Z,37.50
2024-03-16T00:08:29.417Z,37.58
2024-03-16T00:11:32.789Z,37.40
2024-03-16T00:14:35.583Z,37.55
2024-03-16T00:17:38.357Z,37.58
2024-03-16T00:20:41.716Z,37.44
2024-03-16T00:23:45.150Z,37.19
2024-03-16T00:26:48.953Z,37.44
2024-03-16T00:29:52.158Z,37.33
2024-03-16T00:32:55.628Z,37.39
2024-03-16T00:35:58.259Z,37.45
2024-03-16T00:39:00.976Z,37.36
2024-03-16T00:42:03.685Z,37.46
2024-03-16T00:45:07.054Z,37.45
2024-03-16T00:48:09.731Z,37.49
2024-03-16T00:51:12.406Z,37.50
2024-03-16T00:54:15.297Z,37.38
2024-03-16T00:57:17.952Z,37.46
2024-03-16T01:00:20.677Z,37.42
2024-03-16T01:03:23.473Z,37.47
2024-03-16T01:06:26.294Z,37.52
2024-03-16T01:09:29.181Z,37.37
2024-03-16T01:12:32.008Z,37.54
2024-03-16T01:15:34.757Z,37.42
2024-03-16T01:18:37.468Z,37.41
2024-03-16T01:21:40.193Z,37.50
2024-03-16T01:24:42.911Z,37.51
2024-03-16T01:27:45.624Z,37.46
2024-03-16T01:30:48.367Z,37.40
2024-03-16T01:33:52.184Z,37.45
2024-03-16T01:36:54.953Z,37.50
2024-03-16T01:39:57.731Z,37.63
2024-03-16T01:43:01.015Z,37.45
2024-03-16T01:46:03.807Z,37.47
2024-03-16T01:49:06.548Z,37.54
2024-03-16T01:52:09.375Z,37.45
2024-03-16T01:55:12.085Z,37.46
2024-03-16T01:58:14.965Z,37.48
2024-03-16T02:01:18.523Z,37.48
2024-03-16T02:04:21.312Z,37.47
2024-03-16T02:07:23.960Z,37.51
2024-03-16T02:10:26.708Z,37.62
2024-03-16T02:13:29.428Z,37.40
2024-03-16T02:16:32.116Z,37.42
2024-03-16T02:19:34.791Z,37.54
2024-03-16T02:22:37.505Z,37.30
2024-03-16T02:25:40.605Z,37.38
2024-03-16T02:28:43.095Z,37.38
2024-03-16T02:31:45.776Z,37.45
2024-03-16T02:34:48.519Z,37.40
2024-03-16T02:37:51.191Z,37.57
2024-03-16T02:40:54.054Z,37.63
2024-03-16T02:43:56.778Z,37.63
2024-03-16T02:46:59.437Z,37.65
2024-03-16T02:50:04.636Z,37.63
2024-03-16T02:53:07.374Z,37.38
2024-03-16T02:56:10.062Z,37.43
2024-03-16T02:59:12.849Z,37.63
2024-03-16T03:02:15.517Z,37.63
2024-03-16T03:05:22.178Z,37.35
2024-03-16T03:08:24.981Z,37.59
2024-03-16T03:11:27.686Z,37.46
2024-03-16T03:14:30.428Z,37.50
2024-03-16T03:17:34.028Z,37.48
2024-03-16T03:20:36.763Z,37.46
2024-03-16T03:23:39.479Z,37.51
2024-03-16T03:26:42.223Z,37.37
2024-03-16T03:29:44.964Z,37.45
2024-03-16T03:32:47.687Z,37.62
2024-03-16T03:35:50.410Z,37.62
2024-03-16T03:38:53.078Z,37.53
2024-03-16T03:41:55.760Z,37.41
2024-03-16T03:45:12.256Z,37.35
2024-03-16T03:48:26.276Z,37.55
2024-03-16T03:51:29.243Z,37.49
2024-03-16T03:54:32.288Z,37.40
2024-03-16T03:57:34.789Z,37.41
2024-03-16T04:00:37.515Z,37.50
2024-03-16T04:03:40.237Z,37.34
2024-03-16T04:06:45.835Z,37.54
2024-03-16T04:09:50.116Z,37.54
2024-03-16T04:12:52.888Z,37.53
2024-03-16T04:15:56.555Z,37.49
2024-03-16T04:18:59.547Z,37.41
2024-03-16T04:22:02.245Z,37.61
2024-03-16T04:25:07.937Z,37.44
2024-03-16T04:28:12.845Z,37.45
2024-03-16T04:31:15.612Z,37.43
2024-03-16T04:34:18.597Z,37.50
2024-03-16T04:37:21.291Z,37.28
2024-03-16T04:40:24.250Z,36.88
2024-03-16T04:43:26.913Z,36.99
2024-03-16T04:46:34.111Z,37.14
2024-03-16T04:49:36.803Z,37.24
2024-03-16T04:52:39.476Z,37.62
2024-03-16T04:55:42.423Z,38.22
2024-03-16T04:58:45.104Z,38.41
2024-03-16T05:01:47.933Z,38.42
2024-03-16T05:04:50.658Z,38.00
2024-03-16T05:07:54.035Z,37.43
2024-03-16T05:10:59.796Z,37.19
2024-03-16T05:14:04.027Z,36.75
2024-03-16T05:17:06.665Z,36.40
2024-03-16T05:20:11.541Z,36.22
2024-03-16T05:23:15.215Z,36.20
2024-03-16T05:26:17.896Z,36.08
2024-03-16T05:29:20.570Z,35.91
2024-03-16T05:32:24.206Z,35.95
2024-03-16T05:35:29.255Z,36.03
2024-03-16T05:38:32.063Z,36.03
2024-03-16T05:41:34.747Z,36.29
2024-03-16T05:44:37.490Z,36.37
2024-03-16T05:47:40.256Z,36.53
2024-03-16T05:50:42.948Z,36.68
2024-03-16T05:53:45.612Z,36.42
2024-03-16T05:56:49.421Z,36.42
2024-03-16T05:59:52.948Z,36.42
2024-03-16T06:02:57.055Z,36.57
2024-03-16T06:05:59.884Z,36.72
2024-03-16T06:09:04.168Z,36.75
2024-03-16T06:12:08.705Z,36.38
2024-03-16T06:15:11.890Z,36.21
2024-03-16T06:18:15.390Z,36.15
2024-03-16T06:21:18.069Z,36.22
2024-03-16T06:24:20.736Z,35.97
2024-03-16T06:27:23.579Z,36.07
2024-03-16T06:30:29.200Z,36.16
2024-03-16T06:33:32.381Z,36.19
2024-03-16T06:36:35.272Z,36.22
2024-03-16T06:39:38.105Z,36.20
2024-03-16T06:42:40.850Z,36.12
2024-03-16T06:45:43.819Z,36.38
2024-03-16T06:48:46.535Z,36.15
2024-03-16T06:51:49.224Z,35.87
2024-03-16T06:54:52.141Z,35.67
2024-03-16T06:57:54.865Z,35.52
2024-03-16T07:00:57.656Z,35.52
2024-03-16T07:04:00.565Z,35.42
2024-03-16T07:07:03.581Z,35.70
2024-03-16T07:10:07.640Z,35.80
2024-03-16T07:13:10.920Z,35.87
2024-03-16T07:16:14.775Z,35.86
2024-03-16T07:19:19.323Z,36.07
2024-03-16T07:22:22.165Z,36.02
2024-03-16T07:25:24.882Z,36.06
2024-03-16T07:28:27.633Z,36.14
2024-03-16T07:31:30.315Z,36.23
2024-03-16T07:34:34.623Z,36.20
2024-03-16T07:37:37.283Z,36.38
2024-03-16T07:40:40.074Z,36.35
2024-03-16T07:43:45.163Z,36.48
2024-03-16T07:46:49.347Z,36.49
2024-03-16T07:49:53.232Z,36.62
2024-03-16T07:52:55.888Z,36.59
2024-03-16T07:55:59.275Z,36.88
2024-03-16T07:59:02.114Z,36.65
2024-03-16T08:02:05.185Z,36.76
2024-03-16T08:05:12.101Z,36.67
2024-03-16T08:08:14.946Z,36.69
2024-03-16T08:11:17.644Z,36.50
2024-03-16T08:14:21.625Z,36.18
2024-03-16T08:17:24.320Z,36.09
2024-03-16T08:20:27.035Z,36.01
2024-03-16T08:23:30.606Z,35.87
2024-03-16T08:26:33.356Z,35.84
2024-03-16T08:29:36.366Z,35.68
2024-03-16T08:32:38.845Z,35.74
2024-03-16T08:35:41.549Z,35.88
2024-03-16T08:38:44.216Z,35.84
2024-03-16T08:41:47.041Z,35.89
2024-03-16T08:44:49.774Z,35.97
2024-03-16T08:47:52.507Z,35.92
2024-03-16T08:50:55.269Z,36.02
2024-03-16T08:53:58.016Z,36.13
2024-03-16T08:57:00.726Z,36.03
2024-03-16T09:00:05.522Z,36.27
2024-03-16T09:03:08.306Z,36.30
2024-03-16T09:06:11.125Z,36.29
2024-03-16T09:09:13.804Z,36.35
2024-03-16T09:12:16.581Z,36.38
2024-03-16T09:15:20.741Z,36.39
2024-03-16T09:18:23.426Z,36.31
2024-03-16T09:21:26.422Z,36.45
2024-03-16T09:24:29.245Z,36.45
2024-03-16T09:27:31.949Z,36.50
2024-03-16T09:30:34.961Z,36.47
2024-03-16T09:33:37.502Z,36.40
2024-03-16T09:36:40.740Z,36.51
2024-03-16T09:39:44.279Z,36.53
